sensor_id;sensor_type;location;lat;lon;timestamp;P1;durP1;ratioP1;P2;durP2;ratioP2
69030;SDS011;56083;48.774;8.942;2024-01-25T00:02:13;50.78;;;6.28;;
69030;SDS011;56083;48.774;8.942;2024-01-25T00:04:39;38.40;;;5.10;;
69030;SDS011;56083;48.774;8.942;2024-01-25T00:07:07;44.90;;;5.50;;
69030;SDS011;56083;48.774;8.942;2024-01-25T00:09:34;38.50;;;5.65;;
69030;SDS011;56083;48.774;8.942;2024-01-25T00:12:01;40.70;;;5.43;;
69030;SDS011;56083;48.774;8.942;2024-01-25T00:14:27;44.80;;;5.93;;
69030;SDS011;56083;48.774;8.942;2024-01-25T00:16:52;43.05;;;5.32;;
69030;SDS011;56083;48.774;8.942;2024-01-25T00:19:18;45.78;;;5.50;;
69030;SDS011;56083;48.774;8.942;2024-01-25T00:21:44;46.60;;;6.03;;
69030;SDS011;56083;48.774;8.942;2024-01-25T00:24:11;36.38;;;4.78;;
69030;SDS011;56083;48.774;8.942;2024-01-25T00:26:37;39.13;;;5.63;;
69030;SDS011;56083;48.774;8.942;2024-01-25T00:29:04;40.92;;;5.57;;
69030;SDS011;56083;48.774;8.942;2024-01-25T00:31:30;41.47;;;5.28;;
69030;SDS011;56083;48.774;8.942;2024-01-25T00:33:57;42.05;;;5.95;;
69030;SDS011;56083;48.774;8.942;2024-01-25T00:36:23;38.58;;;5.68;;
69030;SDS011;56083;48.774;8.942;2024-01-25T00:38:49;48.92;;;5.85;;
69030;SDS011;56083;48.774;8.942;2024-01-25T00:41:18;43.15;;;5.95;;
69030;SDS011;56083;48.774;8.942;2024-01-25T00:43:45;30.33;;;4.65;;
69030;SDS011;56083;48.774;8.942;2024-01-25T00:46:11;43.60;;;5.53;;
69030;SDS011;56083;48.774;8.942;2024-01-25T00:48:37;43.50;;;6.18;;
69030;SDS011;56083;48.774;8.942;2024-01-25T00:51:08;49.65;;;6.35;;
69030;SDS011;56083;48.774;8.942;2024-01-25T00:53:37;39.30;;;4.90;;
69030;SDS011;56083;48.774;8.942;2024-01-25T00:56:03;36.75;;;5.30;;
69030;SDS011;56083;48.774;8.942;2024-01-25T00:58:29;38.83;;;5.72;;
69030;SDS011;56083;48.774;8.942;2024-01-25T01:00:56;37.33;;;5.43;;
69030;SDS011;56083;48.774;8.942;2024-01-25T01:03:22;31.85;;;5.15;;
69030;SDS011;56083;48.774;8.942;2024-01-25T01:05:48;44.35;;;4.65;;
69030;SDS011;56083;48.774;8.942;2024-01-25T01:08:14;37.83;;;5.10;;
69030;SDS011;56083;48.774;8.942;2024-01-25T01:10:40;31.08;;;4.60;;
69030;SDS011;56083;48.774;8.942;2024-01-25T01:13:06;35.17;;;4.78;;
69030;SDS011;56083;48.774;8.942;2024-01-25T01:15:32;41.35;;;5.47;;
69030;SDS011;56083;48.774;8.942;2024-01-25T01:17:58;39.95;;;5.30;;
69030;SDS011;56083;48.774;8.942;2024-01-25T01:20:24;31.45;;;4.90;;
69030;SDS011;56083;48.774;8.942;2024-01-25T01:22:51;36.17;;;4.82;;
69030;SDS011;56083;48.774;8.942;2024-01-25T01:25:17;41.22;;;5.70;;
69030;SDS011;56083;48.774;8.942;2024-01-25T01:27:43;44.15;;;5.43;;
69030;SDS011;56083;48.774;8.942;2024-01-25T01:30:09;39.70;;;5.15;;
69030;SDS011;56083;48.774;8.942;2024-01-25T01:32:35;45.78;;;5.45;;
69030;SDS011;56083;48.774;8.942;2024-01-25T01:35:01;48.08;;;5.90;;
69030;SDS011;56083;48.774;8.942;2024-01-25T01:37:27;37.72;;;5.57;;
69030;SDS011;56083;48.774;8.942;2024-01-25T01:39:53;43.05;;;5.38;;
69030;SDS011;56083;48.774;8.942;2024-01-25T01:42:21;37.17;;;5.43;;
69030;SDS011;56083;48.774;8.942;2024-01-25T01:44:47;47.03;;;5.88;;
69030;SDS011;56083;48.774;8.942;2024-01-25T01:47:14;29.35;;;4.93;;
69030;SDS011;56083;48.774;8.942;2024-01-25T01:49:40;31.55;;;4.82;;
69030;SDS011;56083;48.774;8.942;2024-01-25T01:52:06;32.50;;;4.88;;
69030;SDS011;56083;48.774;8.942;2024-01-25T01:54:33;41.17;;;5.60;;
69030;SDS011;56083;48.774;8.942;2024-01-25T01:56:59;36.50;;;4.95;;
69030;SDS011;56083;48.774;8.942;2024-01-25T01:59:25;39.58;;;4.85;;
69030;SDS011;56083;48.774;8.942;2024-01-25T02:01:54;29.83;;;4.30;;
69030;SDS011;56083;48.774;8.942;2024-01-25T02:04:20;44.25;;;5.07;;
69030;SDS011;56083;48.774;8.942;2024-01-25T02:06:46;42.60;;;5.43;;
69030;SDS011;56083;48.774;8.942;2024-01-25T02:09:12;36.05;;;4.80;;
69030;SDS011;56083;48.774;8.942;2024-01-25T02:11:38;42.85;;;5.72;;
69030;SDS011;56083;48.774;8.942;2024-01-25T02:14:04;41.97;;;4.55;;
69030;SDS011;56083;48.774;8.942;2024-01-25T02:16:31;32.13;;;4.35;;
69030;SDS011;56083;48.774;8.942;2024-01-25T02:18:57;44.78;;;5.22;;
69030;SDS011;56083;48.774;8.942;2024-01-25T02:21:23;35.30;;;5.00;;
69030;SDS011;56083;48.774;8.942;2024-01-25T02:23:50;42.10;;;5.05;;
69030;SDS011;56083;48.774;8.942;2024-01-25T02:26:16;37.25;;;4.72;;
69030;SDS011;56083;48.774;8.942;2024-01-25T02:28:44;31.90;;;4.80;;
69030;SDS011;56083;48.774;8.942;2024-01-25T02:31:10;40.58;;;4.72;;
69030;SDS011;56083;48.774;8.942;2024-01-25T02:33:35;39.58;;;4.55;;
69030;SDS011;56083;48.774;8.942;2024-01-25T02:36:01;34.63;;;4.63;;
69030;SDS011;56083;48.774;8.942;2024-01-25T02:38:27;29.13;;;4.68;;
69030;SDS011;56083;48.774;8.942;2024-01-25T02:40:53;29.40;;;4.80;;
69030;SDS011;56083;48.774;8.942;2024-01-25T02:43:19;36.03;;;5.35;;
69030;SDS011;56083;48.774;8.942;2024-01-25T02:45:46;36.30;;;4.63;;
69030;SDS011;56083;48.774;8.942;2024-01-25T02:48:13;41.30;;;5.28;;
69030;SDS011;56083;48.774;8.942;2024-01-25T02:50:39;45.55;;;5.40;;
69030;SDS011;56083;48.774;8.942;2024-01-25T02:53:05;45.88;;;5.13;;
69030;SDS011;56083;48.774;8.942;2024-01-25T02:55:31;34.67;;;4.55;;
69030;SDS011;56083;48.774;8.942;2024-01-25T02:57:57;37.22;;;5.05;;
69030;SDS011;56083;48.774;8.942;2024-01-25T03:00:23;29.60;;;4.38;;
69030;SDS011;56083;48.774;8.942;2024-01-25T03:02:49;32.53;;;4.38;;
69030;SDS011;56083;48.774;8.942;2024-01-25T03:05:15;35.85;;;4.72;;
69030;SDS011;56083;48.774;8.942;2024-01-25T03:07:41;39.42;;;5.00;;
69030;SDS011;56083;48.774;8.942;2024-01-25T03:10:07;32.50;;;4.45;;
69030;SDS011;56083;48.774;8.942;2024-01-25T03:12:33;38.63;;;4.50;;
69030;SDS011;56083;48.774;8.942;2024-01-25T03:14:59;30.23;;;4.85;;
69030;SDS011;56083;48.774;8.942;2024-01-25T03:17:25;29.05;;;4.32;;
69030;SDS011;56083;48.774;8.942;2024-01-25T03:19:51;41.58;;;4.20;;
69030;SDS011;56083;48.774;8.942;2024-01-25T03:22:17;35.35;;;4.72;;
69030;SDS011;56083;48.774;8.942;2024-01-25T03:24:43;38.22;;;4.68;;
69030;SDS011;56083;48.774;8.942;2024-01-25T03:27:09;33.30;;;4.07;;
69030;SDS011;56083;48.774;8.942;2024-01-25T03:29:40;34.55;;;4.22;;
69030;SDS011;56083;48.774;8.942;2024-01-25T03:32:07;30.40;;;4.22;;
69030;SDS011;56083;48.774;8.942;2024-01-25T03:34:33;34.03;;;5.05;;
69030;SDS011;56083;48.774;8.942;2024-01-25T03:36:59;37.90;;;4.72;;
69030;SDS011;56083;48.774;8.942;2024-01-25T03:39:24;30.73;;;4.32;;
69030;SDS011;56083;48.774;8.942;2024-01-25T03:41:50;41.38;;;4.85;;
69030;SDS011;56083;48.774;8.942;2024-01-25T03:44:16;38.03;;;4.53;;
69030;SDS011;56083;48.774;8.942;2024-01-25T03:46:42;35.85;;;4.72;;
69030;SDS011;56083;48.774;8.942;2024-01-25T03:49:08;30.08;;;4.38;;
69030;SDS011;56083;48.774;8.942;2024-01-25T03:51:34;34.67;;;4.43;;
69030;SDS011;56083;48.774;8.942;2024-01-25T03:54:00;30.98;;;4.63;;
69030;SDS011;56083;48.774;8.942;2024-01-25T03:56:26;36.55;;;5.00;;
69030;SDS011;56083;48.774;8.942;2024-01-25T03:58:52;36.60;;;4.85;;
69030;SDS011;56083;48.774;8.942;2024-01-25T04:01:18;40.13;;;4.47;;
69030;SDS011;56083;48.774;8.942;2024-01-25T04:03:44;44.22;;;6.00;;
69030;SDS011;56083;48.774;8.942;2024-01-25T04:06:10;33.83;;;4.47;;
69030;SDS011;56083;48.774;8.942;2024-01-25T04:08:36;27.20;;;3.88;;
69030;SDS011;56083;48.774;8.942;2024-01-25T04:11:03;39.42;;;4.95;;
69030;SDS011;56083;48.774;8.942;2024-01-25T04:13:29;38.38;;;5.65;;
69030;SDS011;56083;48.774;8.942;2024-01-25T04:15:56;30.20;;;4.28;;
69030;SDS011;56083;48.774;8.942;2024-01-25T04:18:22;42.05;;;5.30;;
69030;SDS011;56083;48.774;8.942;2024-01-25T04:20:48;38.35;;;4.90;;
69030;SDS011;56083;48.774;8.942;2024-01-25T04:23:15;34.58;;;4.95;;
69030;SDS011;56083;48.774;8.942;2024-01-25T04:25:41;39.90;;;5.22;;
69030;SDS011;56083;48.774;8.942;2024-01-25T04:28:07;37.28;;;5.13;;
69030;SDS011;56083;48.774;8.942;2024-01-25T04:30:33;31.15;;;4.35;;
69030;SDS011;56083;48.774;8.942;2024-01-25T04:32:59;31.70;;;4.60;;
69030;SDS011;56083;48.774;8.942;2024-01-25T04:35:25;50.55;;;5.07;;
69030;SDS011;56083;48.774;8.942;2024-01-25T04:37:52;32.50;;;4.63;;
69030;SDS011;56083;48.774;8.942;2024-01-25T04:40:18;33.83;;;4.35;;
69030;SDS011;56083;48.774;8.942;2024-01-25T04:42:44;43.10;;;6.13;;
69030;SDS011;56083;48.774;8.942;2024-01-25T04:45:10;47.80;;;11.82;;
69030;SDS011;56083;48.774;8.942;2024-01-25T04:47:37;41.33;;;7.10;;
69030;SDS011;56083;48.774;8.942;2024-01-25T04:50:04;37.05;;;5.72;;
69030;SDS011;56083;48.774;8.942;2024-01-25T04:52:30;33.67;;;5.03;;
69030;SDS011;56083;48.774;8.942;2024-01-25T04:54:56;39.92;;;4.60;;
69030;SDS011;56083;48.774;8.942;2024-01-25T04:57:23;31.65;;;5.20;;
69030;SDS011;56083;48.774;8.942;2024-01-25T04:59:49;42.45;;;4.68;;
69030;SDS011;56083;48.774;8.942;2024-01-25T05:02:15;34.05;;;5.30;;
69030;SDS011;56083;48.774;8.942;2024-01-25T05:04:41;32.80;;;5.38;;
69030;SDS011;56083;48.774;8.942;2024-01-25T05:07:07;37.00;;;5.43;;
69030;SDS011;56083;48.774;8.942;2024-01-25T05:09:33;38.53;;;5.57;;
69030;SDS011;56083;48.774;8.942;2024-01-25T05:11:58;44.13;;;5.10;;
69030;SDS011;56083;48.774;8.942;2024-01-25T05:14:27;39.13;;;5.93;;
69030;SDS011;56083;48.774;8.942;2024-01-25T05:16:53;38.53;;;4.97;;
69030;SDS011;56083;48.774;8.942;2024-01-25T05:19:19;36.63;;;5.05;;
69030;SDS011;56083;48.774;8.942;2024-01-25T05:21:45;39.90;;;5.88;;
69030;SDS011;56083;48.774;8.942;2024-01-25T05:24:11;40.80;;;5.13;;
69030;SDS011;56083;48.774;8.942;2024-01-25T05:26:37;35.80;;;4.72;;
69030;SDS011;56083;48.774;8.942;2024-01-25T05:29:04;39.97;;;5.03;;
69030;SDS011;56083;48.774;8.942;2024-01-25T05:31:30;38.97;;;5.15;;
69030;SDS011;56083;48.774;8.942;2024-01-25T05:33:56;33.45;;;4.82;;
69030;SDS011;56083;48.774;8.942;2024-01-25T05:36:22;44.03;;;5.28;;
69030;SDS011;56083;48.774;8.942;2024-01-25T05:38:48;44.80;;;5.85;;
69030;SDS011;56083;48.774;8.942;2024-01-25T05:41:14;43.63;;;5.47;;
69030;SDS011;56083;48.774;8.942;2024-01-25T05:43:40;43.42;;;5.13;;
69030;SDS011;56083;48.774;8.942;2024-01-25T05:46:06;41.92;;;5.25;;
69030;SDS011;56083;48.774;8.942;2024-01-25T05:48:32;42.70;;;5.55;;
69030;SDS011;56083;48.774;8.942;2024-01-25T05:50:58;40.92;;;5.60;;
69030;SDS011;56083;48.774;8.942;2024-01-25T05:53:24;37.70;;;5.45;;
69030;SDS011;56083;48.774;8.942;2024-01-25T05:55:50;44.55;;;5.85;;
69030;SDS011;56083;48.774;8.942;2024-01-25T05:58:16;50.58;;;6.35;;
69030;SDS011;56083;48.774;8.942;2024-01-25T06:00:42;46.40;;;6.35;;
69030;SDS011;56083;48.774;8.942;2024-01-25T06:03:08;44.83;;;5.30;;
69030;SDS011;56083;48.774;8.942;2024-01-25T06:05:34;46.38;;;5.93;;
69030;SDS011;56083;48.774;8.942;2024-01-25T06:08:00;48.83;;;5.63;;
69030;SDS011;56083;48.774;8.942;2024-01-25T06:10:26;46.60;;;6.47;;
69030;SDS011;56083;48.774;8.942;2024-01-25T06:12:52;45.80;;;5.53;;
69030;SDS011;56083;48.774;8.942;2024-01-25T06:15:18;46.78;;;5.82;;
69030;SDS011;56083;48.774;8.942;2024-01-25T06:17:45;52.53;;;6.70;;
69030;SDS011;56083;48.774;8.942;2024-01-25T06:20:11;45.97;;;6.13;;
69030;SDS011;56083;48.774;8.942;2024-01-25T06:22:37;47.00;;;6.40;;
69030;SDS011;56083;48.774;8.942;2024-01-25T06:25:03;49.97;;;6.28;;
69030;SDS011;56083;48.774;8.942;2024-01-25T06:27:29;49.17;;;9.88;;
69030;SDS011;56083;48.774;8.942;2024-01-25T06:29:55;46.63;;;7.55;;
69030;SDS011;56083;48.774;8.942;2024-01-25T06:32:21;58.75;;;7.68;;
69030;SDS011;56083;48.774;8.942;2024-01-25T06:34:47;45.95;;;6.30;;
69030;SDS011;56083;48.774;8.942;2024-01-25T06:37:13;53.05;;;5.50;;
69030;SDS011;56083;48.774;8.942;2024-01-25T06:39:41;56.38;;;6.70;;
69030;SDS011;56083;48.774;8.942;2024-01-25T06:42:07;53.30;;;9.95;;
69030;SDS011;56083;48.774;8.942;2024-01-25T06:44:33;59.88;;;8.55;;
69030;SDS011;56083;48.774;8.942;2024-01-25T06:46:59;56.35;;;8.35;;
69030;SDS011;56083;48.774;8.942;2024-01-25T06:49:25;54.88;;;8.30;;
69030;SDS011;56083;48.774;8.942;2024-01-25T06:51:51;59.67;;;9.52;;
69030;SDS011;56083;48.774;8.942;2024-01-25T06:54:17;58.45;;;7.88;;
69030;SDS011;56083;48.774;8.942;2024-01-25T06:56:43;47.40;;;8.27;;
69030;SDS011;56083;48.774;8.942;2024-01-25T06:59:08;53.70;;;8.07;;
69030;SDS011;56083;48.774;8.942;2024-01-25T07:01:34;54.70;;;9.07;;
69030;SDS011;56083;48.774;8.942;2024-01-25T07:04:01;49.28;;;6.30;;
69030;SDS011;56083;48.774;8.942;2024-01-25T07:06:28;45.67;;;6.18;;
69030;SDS011;56083;48.774;8.942;2024-01-25T07:08:54;50.25;;;6.82;;
69030;SDS011;56083;48.774;8.942;2024-01-25T07:11:20;48.10;;;9.70;;
69030;SDS011;56083;48.774;8.942;2024-01-25T07:13:46;42.58;;;5.40;;
69030;SDS011;56083;48.774;8.942;2024-01-25T07:16:12;35.90;;;5.35;;
69030;SDS011;56083;48.774;8.942;2024-01-25T07:18:38;43.95;;;6.30;;
69030;SDS011;56083;48.774;8.942;2024-01-25T07:21:04;47.83;;;5.68;;
69030;SDS011;56083;48.774;8.942;2024-01-25T07:23:32;46.67;;;10.02;;
69030;SDS011;56083;48.774;8.942;2024-01-25T07:25:58;47.72;;;6.82;;
69030;SDS011;56083;48.774;8.942;2024-01-25T07:28:24;47.50;;;7.28;;
69030;SDS011;56083;48.774;8.942;2024-01-25T07:30:50;47.35;;;7.05;;
69030;SDS011;56083;48.774;8.942;2024-01-25T07:33:16;49.08;;;7.18;;
69030;SDS011;56083;48.774;8.942;2024-01-25T07:35:42;51.17;;;7.20;;
69030;SDS011;56083;48.774;8.942;2024-01-25T07:38:13;53.78;;;7.50;;
69030;SDS011;56083;48.774;8.942;2024-01-25T07:43:39;33.03;;;6.53;;
69030;SDS011;56083;48.774;8.942;2024-01-25T07:46:05;42.28;;;6.88;;
69030;SDS011;56083;48.774;8.942;2024-01-25T07:48:32;33.35;;;6.47;;
69030;SDS011;56083;48.774;8.942;2024-01-25T07:50:58;36.75;;;6.28;;
69030;SDS011;56083;48.774;8.942;2024-01-25T07:53:24;39.90;;;7.50;;
69030;SDS011;56083;48.774;8.942;2024-01-25T07:55:50;39.55;;;7.65;;
69030;SDS011;56083;48.774;8.942;2024-01-25T07:58:16;27.77;;;6.30;;
69030;SDS011;56083;48.774;8.942;2024-01-25T08:00:42;27.92;;;5.60;;
69030;SDS011;56083;48.774;8.942;2024-01-25T08:03:09;23.52;;;5.40;;
69030;SDS011;56083;48.774;8.942;2024-01-25T08:05:35;27.65;;;5.60;;
69030;SDS011;56083;48.774;8.942;2024-01-25T08:08:01;23.33;;;5.05;;
69030;SDS011;56083;48.774;8.942;2024-01-25T08:10:27;23.63;;;5.10;;
69030;SDS011;56083;48.774;8.942;2024-01-25T08:12:53;26.33;;;4.90;;
69030;SDS011;56083;48.774;8.942;2024-01-25T08:15:19;29.10;;;5.50;;
69030;SDS011;56083;48.774;8.942;2024-01-25T08:17:45;25.70;;;5.30;;
69030;SDS011;56083;48.774;8.942;2024-01-25T08:20:11;16.70;;;3.83;;
69030;SDS011;56083;48.774;8.942;2024-01-25T08:22:40;22.23;;;4.78;;
69030;SDS011;56083;48.774;8.942;2024-01-25T08:25:07;20.73;;;4.50;;
69030;SDS011;56083;48.774;8.942;2024-01-25T08:27:33;29.65;;;5.20;;
69030;SDS011;56083;48.774;8.942;2024-01-25T08:29:59;22.48;;;4.95;;
69030;SDS011;56083;48.774;8.942;2024-01-25T08:32:25;22.40;;;4.97;;
69030;SDS011;56083;48.774;8.942;2024-01-25T08:34:51;24.40;;;5.13;;
69030;SDS011;56083;48.774;8.942;2024-01-25T08:37:17;28.13;;;5.22;;
69030;SDS011;56083;48.774;8.942;2024-01-25T08:39:43;24.63;;;5.22;;
69030;SDS011;56083;48.774;8.942;2024-01-25T08:42:10;28.67;;;5.90;;
69030;SDS011;56083;48.774;8.942;2024-01-25T08:44:38;24.98;;;5.38;;
69030;SDS011;56083;48.774;8.942;2024-01-25T08:47:04;29.20;;;5.32;;
69030;SDS011;56083;48.774;8.942;2024-01-25T08:49:30;21.33;;;4.85;;
69030;SDS011;56083;48.774;8.942;2024-01-25T08:51:56;27.83;;;4.97;;
69030;SDS011;56083;48.774;8.942;2024-01-25T08:54:22;25.92;;;4.70;;
69030;SDS011;56083;48.774;8.942;2024-01-25T08:56:48;28.45;;;5.95;;
69030;SDS011;56083;48.774;8.942;2024-01-25T08:59:14;25.73;;;5.10;;
69030;SDS011;56083;48.774;8.942;2024-01-25T09:01:40;20.83;;;4.70;;
69030;SDS011;56083;48.774;8.942;2024-01-25T09:04:06;26.20;;;5.32;;
69030;SDS011;56083;48.774;8.942;2024-01-25T09:06:33;25.45;;;4.47;;
69030;SDS011;56083;48.774;8.942;2024-01-25T09:08:59;27.52;;;5.60;;
69030;SDS011;56083;48.774;8.942;2024-01-25T09:11:25;28.60;;;4.90;;
69030;SDS011;56083;48.774;8.942;2024-01-25T09:13:51;24.00;;;4.95;;
69030;SDS011;56083;48.774;8.942;2024-01-25T09:16:17;22.73;;;4.93;;
69030;SDS011;56083;48.774;8.942;2024-01-25T09:18:43;24.70;;;4.78;;
69030;SDS011;56083;48.774;8.942;2024-01-25T09:21:09;25.05;;;5.07;;
69030;SDS011;56083;48.774;8.942;2024-01-25T09:23:35;21.75;;;4.63;;
69030;SDS011;56083;48.774;8.942;2024-01-25T09:26:01;23.85;;;4.68;;
69030;SDS011;56083;48.774;8.942;2024-01-25T09:28:28;23.13;;;4.53;;
69030;SDS011;56083;48.774;8.942;2024-01-25T09:30:54;25.15;;;4.55;;
69030;SDS011;56083;48.774;8.942;2024-01-25T09:33:20;23.30;;;4.40;;
69030;SDS011;56083;48.774;8.942;2024-01-25T09:35:46;25.80;;;4.07;;
69030;SDS011;56083;48.774;8.942;2024-01-25T09:38:12;27.88;;;4.88;;
69030;SDS011;56083;48.774;8.942;2024-01-25T09:40:38;19.55;;;4.10;;
69030;SDS011;56083;48.774;8.942;2024-01-25T09:43:04;18.20;;;4.50;;
69030;SDS011;56083;48.774;8.942;2024-01-25T09:45:31;19.75;;;4.22;;
69030;SDS011;56083;48.774;8.942;2024-01-25T09:47:57;31.58;;;4.95;;
69030;SDS011;56083;48.774;8.942;2024-01-25T09:50:23;24.15;;;5.00;;
69030;SDS011;56083;48.774;8.942;2024-01-25T09:52:52;27.85;;;4.55;;
69030;SDS011;56083;48.774;8.942;2024-01-25T09:57:48;22.75;;;4.57;;
69030;SDS011;56083;48.774;8.942;2024-01-25T10:00:16;24.02;;;4.32;;
69030;SDS011;56083;48.774;8.942;2024-01-25T10:02:42;21.75;;;4.20;;
69030;SDS011;56083;48.774;8.942;2024-01-25T10:05:09;24.33;;;4.53;;
69030;SDS011;56083;48.774;8.942;2024-01-25T10:07:39;28.85;;;4.57;;
69030;SDS011;56083;48.774;8.942;2024-01-25T10:10:05;29.73;;;5.10;;
69030;SDS011;56083;48.774;8.942;2024-01-25T10:12:31;19.90;;;4.18;;
69030;SDS011;56083;48.774;8.942;2024-01-25T10:14:58;24.60;;;4.40;;
69030;SDS011;56083;48.774;8.942;2024-01-25T10:17:24;26.38;;;4.32;;
69030;SDS011;56083;48.774;8.942;2024-01-25T10:19:50;21.83;;;3.88;;
69030;SDS011;56083;48.774;8.942;2024-01-25T10:22:16;22.05;;;4.18;;
69030;SDS011;56083;48.774;8.942;2024-01-25T10:24:42;18.27;;;4.10;;
69030;SDS011;56083;48.774;8.942;2024-01-25T10:27:08;20.13;;;4.20;;
69030;SDS011;56083;48.774;8.942;2024-01-25T10:29:34;21.80;;;4.10;;
69030;SDS011;56083;48.774;8.942;2024-01-25T10:32:03;18.75;;;3.88;;
69030;SDS011;56083;48.774;8.942;2024-01-25T10:34:30;16.92;;;3.72;;
69030;SDS011;56083;48.774;8.942;2024-01-25T10:36:56;23.67;;;4.28;;
69030;SDS011;56083;48.774;8.942;2024-01-25T10:39:23;18.15;;;4.13;;
69030;SDS011;56083;48.774;8.942;2024-01-25T10:41:50;20.13;;;3.88;;
69030;SDS011;56083;48.774;8.942;2024-01-25T10:44:16;20.63;;;4.07;;
69030;SDS011;56083;48.774;8.942;2024-01-25T10:46:49;19.58;;;4.53;;
69030;SDS011;56083;48.774;8.942;2024-01-25T10:49:18;23.55;;;4.55;;
69030;SDS011;56083;48.774;8.942;2024-01-25T10:51:44;17.60;;;3.63;;
69030;SDS011;56083;48.774;8.942;2024-01-25T10:54:12;23.38;;;4.25;;
69030;SDS011;56083;48.774;8.942;2024-01-25T10:56:41;27.67;;;4.55;;
69030;SDS011;56083;48.774;8.942;2024-01-25T10:59:07;19.95;;;3.65;;
69030;SDS011;56083;48.774;8.942;2024-01-25T11:01:33;29.00;;;4.05;;
69030;SDS011;56083;48.774;8.942;2024-01-25T11:04:00;28.05;;;4.22;;
69030;SDS011;56083;48.774;8.942;2024-01-25T11:06:26;14.13;;;2.97;;
69030;SDS011;56083;48.774;8.942;2024-01-25T11:09:03;15.15;;;3.83;;
69030;SDS011;56083;48.774;8.942;2024-01-25T11:11:30;11.68;;;3.25;;
69030;SDS011;56083;48.774;8.942;2024-01-25T11:13:58;17.33;;;4.20;;
69030;SDS011;56083;48.774;8.942;2024-01-25T11:16:28;16.95;;;3.45;;
69030;SDS011;56083;48.774;8.942;2024-01-25T11:18:55;17.42;;;3.60;;
69030;SDS011;56083;48.774;8.942;2024-01-25T11:23:58;17.38;;;3.33;;
69030;SDS011;56083;48.774;8.942;2024-01-25T11:26:24;18.80;;;3.45;;
69030;SDS011;56083;48.774;8.942;2024-01-25T11:28:51;15.98;;;3.65;;
69030;SDS011;56083;48.774;8.942;2024-01-25T11:31:17;16.60;;;3.75;;
69030;SDS011;56083;48.774;8.942;2024-01-25T11:33:44;16.65;;;2.97;;
69030;SDS011;56083;48.774;8.942;2024-01-25T11:36:10;16.80;;;3.65;;
69030;SDS011;56083;48.774;8.942;2024-01-25T11:38:36;16.77;;;3.17;;
69030;SDS011;56083;48.774;8.942;2024-01-25T11:41:02;17.50;;;3.90;;
69030;SDS011;56083;48.774;8.942;2024-01-25T11:43:28;12.32;;;2.75;;
69030;SDS011;56083;48.774;8.942;2024-01-25T11:45:54;13.27;;;3.00;;
69030;SDS011;56083;48.774;8.942;2024-01-25T11:48:20;17.63;;;3.55;;
69030;SDS011;56083;48.774;8.942;2024-01-25T11:50:46;11.38;;;3.03;;
69030;SDS011;56083;48.774;8.942;2024-01-25T11:53:13;16.17;;;3.63;;
69030;SDS011;56083;48.774;8.942;2024-01-25T11:55:39;15.32;;;3.50;;
69030;SDS011;56083;48.774;8.942;2024-01-25T11:58:05;14.75;;;3.22;;
69030;SDS011;56083;48.774;8.942;2024-01-25T12:00:31;14.95;;;3.72;;
69030;SDS011;56083;48.774;8.942;2024-01-25T12:02:57;14.20;;;3.47;;
69030;SDS011;56083;48.774;8.942;2024-01-25T12:05:25;10.02;;;3.17;;
69030;SDS011;56083;48.774;8.942;2024-01-25T12:07:51;19.13;;;3.75;;
69030;SDS011;56083;48.774;8.942;2024-01-25T12:10:17;13.18;;;3.38;;
69030;SDS011;56083;48.774;8.942;2024-01-25T12:12:45;9.68;;;3.05;;
69030;SDS011;56083;48.774;8.942;2024-01-25T12:15:11;16.05;;;3.70;;
69030;SDS011;56083;48.774;8.942;2024-01-25T12:17:37;15.38;;;3.13;;
69030;SDS011;56083;48.774;8.942;2024-01-25T12:20:05;9.60;;;2.80;;
69030;SDS011;56083;48.774;8.942;2024-01-25T12:22:35;11.52;;;3.10;;
69030;SDS011;56083;48.774;8.942;2024-01-25T12:25:01;12.18;;;2.80;;
69030;SDS011;56083;48.774;8.942;2024-01-25T12:27:28;13.15;;;2.97;;
69030;SDS011;56083;48.774;8.942;2024-01-25T12:29:55;13.77;;;2.90;;
69030;SDS011;56083;48.774;8.942;2024-01-25T12:32:22;11.20;;;3.03;;
69030;SDS011;56083;48.774;8.942;2024-01-25T12:34:58;13.27;;;3.28;;
69030;SDS011;56083;48.774;8.942;2024-01-25T12:37:25;14.65;;;3.45;;
69030;SDS011;56083;48.774;8.942;2024-01-25T12:39:52;13.55;;;3.25;;
69030;SDS011;56083;48.774;8.942;2024-01-25T12:42:21;13.73;;;2.95;;
69030;SDS011;56083;48.774;8.942;2024-01-25T12:44:52;11.80;;;3.30;;
69030;SDS011;56083;48.774;8.942;2024-01-25T12:47:19;10.13;;;2.80;;
69030;SDS011;56083;48.774;8.942;2024-01-25T12:49:45;11.85;;;2.90;;
69030;SDS011;56083;48.774;8.942;2024-01-25T12:52:11;11.77;;;2.88;;
69030;SDS011;56083;48.774;8.942;2024-01-25T12:54:37;12.85;;;3.08;;
69030;SDS011;56083;48.774;8.942;2024-01-25T12:57:04;10.55;;;2.90;;
69030;SDS011;56083;48.774;8.942;2024-01-25T12:59:30;11.95;;;2.53;;
69030;SDS011;56083;48.774;8.942;2024-01-25T13:01:56;10.77;;;2.70;;
69030;SDS011;56083;48.774;8.942;2024-01-25T13:04:22;10.23;;;3.00;;
69030;SDS011;56083;48.774;8.942;2024-01-25T13:06:49;8.50;;;2.72;;
69030;SDS011;56083;48.774;8.942;2024-01-25T13:09:14;12.05;;;3.10;;
69030;SDS011;56083;48.774;8.942;2024-01-25T13:11:41;7.35;;;2.40;;
69030;SDS011;56083;48.774;8.942;2024-01-25T13:14:07;12.05;;;2.92;;
69030;SDS011;56083;48.774;8.942;2024-01-25T13:16:33;9.13;;;2.58;;
69030;SDS011;56083;48.774;8.942;2024-01-25T13:18:59;15.75;;;3.00;;
69030;SDS011;56083;48.774;8.942;2024-01-25T13:21:25;10.55;;;2.83;;
69030;SDS011;56083;48.774;8.942;2024-01-25T13:23:51;11.30;;;3.47;;
69030;SDS011;56083;48.774;8.942;2024-01-25T13:26:17;14.45;;;3.03;;
69030;SDS011;56083;48.774;8.942;2024-01-25T13:28:43;13.35;;;3.17;;
69030;SDS011;56083;48.774;8.942;2024-01-25T13:31:10;13.52;;;3.35;;
69030;SDS011;56083;48.774;8.942;2024-01-25T13:33:36;9.18;;;2.47;;
69030;SDS011;56083;48.774;8.942;2024-01-25T13:36:02;10.77;;;3.00;;
69030;SDS011;56083;48.774;8.942;2024-01-25T13:38:33;10.15;;;2.90;;
69030;SDS011;56083;48.774;8.942;2024-01-25T13:40:59;12.48;;;3.30;;
69030;SDS011;56083;48.774;8.942;2024-01-25T13:43:25;11.02;;;3.28;;
69030;SDS011;56083;48.774;8.942;2024-01-25T13:45:51;12.60;;;2.92;;
69030;SDS011;56083;48.774;8.942;2024-01-25T13:48:17;14.75;;;3.75;;
69030;SDS011;56083;48.774;8.942;2024-01-25T13:50:44;14.35;;;3.42;;
69030;SDS011;56083;48.774;8.942;2024-01-25T13:53:10;13.00;;;2.60;;
69030;SDS011;56083;48.774;8.942;2024-01-25T13:55:36;14.48;;;3.10;;
69030;SDS011;56083;48.774;8.942;2024-01-25T13:58:02;14.02;;;3.33;;
69030;SDS011;56083;48.774;8.942;2024-01-25T14:00:28;13.00;;;2.67;;
69030;SDS011;56083;48.774;8.942;2024-01-25T14:02:54;12.23;;;2.55;;
69030;SDS011;56083;48.774;8.942;2024-01-25T14:05:20;13.43;;;3.00;;
69030;SDS011;56083;48.774;8.942;2024-01-25T14:07:46;12.23;;;2.85;;
69030;SDS011;56083;48.774;8.942;2024-01-25T14:10:12;16.50;;;2.83;;
69030;SDS011;56083;48.774;8.942;2024-01-25T14:12:38;12.88;;;2.75;;
69030;SDS011;56083;48.774;8.942;2024-01-25T14:15:04;20.50;;;3.47;;
69030;SDS011;56083;48.774;8.942;2024-01-25T14:17:30;17.40;;;3.40;;
69030;SDS011;56083;48.774;8.942;2024-01-25T14:19:56;17.08;;;2.63;;
69030;SDS011;56083;48.774;8.942;2024-01-25T14:22:22;15.98;;;3.03;;
69030;SDS011;56083;48.774;8.942;2024-01-25T14:24:48;12.73;;;3.15;;
69030;SDS011;56083;48.774;8.942;2024-01-25T14:27:15;15.50;;;3.10;;
69030;SDS011;56083;48.774;8.942;2024-01-25T14:29:41;12.68;;;3.03;;
69030;SDS011;56083;48.774;8.942;2024-01-25T14:32:07;18.90;;;3.35;;
69030;SDS011;56083;48.774;8.942;2024-01-25T14:34:33;14.63;;;2.90;;
69030;SDS011;56083;48.774;8.942;2024-01-25T14:36:59;16.95;;;3.03;;
69030;SDS011;56083;48.774;8.942;2024-01-25T14:39:25;20.42;;;3.72;;